地図

経路データ

SID SEASON NUMBER BASIN SUBBASIN NAME ISO_TIME NATURE LAT LON WMO_WIND WMO_PRES WMO_AGENCY TRACK_TYPE DIST2LAND LANDFALL IFLAG USA_AGENCY USA_ATCF_ID USA_LAT USA_LON USA_RECORD USA_STATUS USA_WIND USA_PRES USA_SSHS USA_R34_NE USA_R34_SE USA_R34_SW USA_R34_NW USA_R50_NE USA_R50_SE USA_R50_SW USA_R50_NW USA_R64_NE USA_R64_SE USA_R64_SW USA_R64_NW USA_POCI USA_ROCI USA_RMW USA_EYE TOKYO_LAT TOKYO_LON TOKYO_GRADE TOKYO_WIND TOKYO_PRES TOKYO_R50_DIR TOKYO_R50_LONG TOKYO_R50_SHORT TOKYO_R30_DIR TOKYO_R30_LONG TOKYO_R30_SHORT TOKYO_LAND CMA_LAT CMA_LON CMA_CAT CMA_WIND CMA_PRES HKO_LAT HKO_LON HKO_CAT HKO_WIND HKO_PRES NEWDELHI_LAT NEWDELHI_LON NEWDELHI_GRADE NEWDELHI_WIND NEWDELHI_PRES NEWDELHI_CI NEWDELHI_DP NEWDELHI_POCI REUNION_LAT REUNION_LON REUNION_TYPE REUNION_WIND REUNION_PRES REUNION_TNUM REUNION_CI REUNION_RMW REUNION_R34_NE REUNION_R34_SE REUNION_R34_SW REUNION_R34_NW REUNION_R50_NE REUNION_R50_SE REUNION_R50_SW REUNION_R50_NW REUNION_R64_NE REUNION_R64_SE REUNION_R64_SW REUNION_R64_NW BOM_LAT BOM_LON BOM_TYPE BOM_WIND BOM_PRES BOM_TNUM BOM_CI BOM_RMW BOM_R34_NE BOM_R34_SE BOM_R34_SW BOM_R34_NW BOM_R50_NE BOM_R50_SE BOM_R50_SW BOM_R50_NW BOM_R64_NE BOM_R64_SE BOM_R64_SW BOM_R64_NW BOM_ROCI BOM_POCI BOM_EYE BOM_POS_METHOD BOM_PRES_METHOD NADI_LAT NADI_LON NADI_CAT NADI_WIND NADI_PRES WELLINGTON_LAT WELLINGTON_LON WELLINGTON_WIND WELLINGTON_PRES DS824_LAT DS824_LON DS824_STAGE DS824_WIND DS824_PRES TD9636_LAT TD9636_LON TD9636_STAGE TD9636_WIND TD9636_PRES TD9635_LAT TD9635_LON TD9635_WIND TD9635_PRES TD9635_ROCI NEUMANN_LAT NEUMANN_LON NEUMANN_CLASS NEUMANN_WIND NEUMANN_PRES MLC_LAT MLC_LON MLC_CLASS MLC_WIND MLC_PRES USA_GUST BOM_GUST BOM_GUST_PER REUNION_GUST REUNION_GUST_PER USA_SEAHGT USA_SEARAD_NE USA_SEARAD_SE USA_SEARAD_SW USA_SEARAD_NW STORM_SPEED STORM_DIR
1993251N25293 1993 66 NA NA FLOYD 1993-09-07 12:00:00 TS 24.7000 -67.5000 25 1012 hurdat_atl main 625 625 O_____________ hurdat_atl AL071993 24.7000 -67.5000 TD 25 1012 -1 16 337
1993251N25293 1993 66 NA NA FLOYD 1993-09-07 15:00:00 TS 25.4401 -67.8444 main 686 686 P_____________ AL071993 25.4401 -67.8444 TD 32 1011 -1 16 337
1993251N25293 1993 66 NA NA FLOYD 1993-09-07 18:00:00 TS 26.2000 -68.2000 40 1010 hurdat_atl main 742 742 O_____________ hurdat_atl AL071993 26.2000 -68.2000 TS 40 1010 0 17 337
1993251N25293 1993 66 NA NA FLOYD 1993-09-07 21:00:00 TS 26.9925 -68.5651 main 786 786 P_____________ AL071993 26.9925 -68.5651 TS 42 1009 0 17 339
1993251N25293 1993 66 NA NA FLOYD 1993-09-08 00:00:00 TS 27.8000 -68.9000 45 1009 hurdat_atl main 845 845 O_____________ hurdat_atl AL071993 27.8000 -68.9000 TS 45 1009 0 17 342
1993251N25293 1993 66 NA NA FLOYD 1993-09-08 03:00:00 TS 28.5999 -69.1730 main 911 891 P_____________ AL071993 28.5999 -69.1730 TS 45 1010 0 17 345
1993251N25293 1993 66 NA NA FLOYD 1993-09-08 06:00:00 TS 29.4000 -69.4000 45 1011 hurdat_atl main 891 817 O_____________ hurdat_atl AL071993 29.4000 -69.4000 TS 45 1011 0 16 344
1993251N25293 1993 66 NA NA FLOYD 1993-09-08 09:00:00 TS 30.1550 -69.6809 main 809 751 P_____________ AL071993 30.1550 -69.6809 TS 42 1011 0 16 348
1993251N25293 1993 66 NA NA FLOYD 1993-09-08 12:00:00 TS 31.0000 -69.8000 40 1012 hurdat_atl main 745 681 O_____________ hurdat_atl AL071993 31.0000 -69.8000 TS 40 1012 0 19 1
1993251N25293 1993 66 NA NA FLOYD 1993-09-08 15:00:00 TS 32.0621 -69.6346 main 681 641 P_____________ AL071993 32.0621 -69.6346 TS 40 1011 0 23 13
1993251N25293 1993 66 NA NA FLOYD 1993-09-08 18:00:00 TS 33.2000 -69.2000 40 1011 hurdat_atl main 644 636 O_____________ hurdat_atl AL071993 33.2000 -69.2000 TS 40 1011 0 24 21
1993251N25293 1993 66 NA NA FLOYD 1993-09-08 21:00:00 TS 34.2494 -68.6104 main 651 648 P_____________ AL071993 34.2494 -68.6104 TS 40 1010 0 24 29
1993251N25293 1993 66 NA NA FLOYD 1993-09-09 00:00:00 TS 35.3000 -67.8000 40 1009 hurdat_atl main 697 647 O_____________ hurdat_atl AL071993 35.3000 -67.8000 TS 40 1009 0 26 33
1993251N25293 1993 66 NA NA FLOYD 1993-09-09 03:00:00 TS 36.4200 -66.8895 main 647 593 P_____________ AL071993 36.4200 -66.8895 TS 40 1008 0 28 38
1993251N25293 1993 66 NA NA FLOYD 1993-09-09 06:00:00 TS 37.5000 -65.7000 40 1007 hurdat_atl main 594 583 O_____________ hurdat_atl AL071993 37.5000 -65.7000 TS 40 1007 0 29 47
1993251N25293 1993 66 NA NA FLOYD 1993-09-09 09:00:00 TS 38.3835 -64.1911 main 574 528 P_____________ AL071993 38.3835 -64.1911 TS 45 1002 0 31 55
1993251N25293 1993 66 NA NA FLOYD 1993-09-09 12:00:00 TS 39.3000 -62.4000 50 997 hurdat_atl main 525 509 O_____________ hurdat_atl AL071993 39.3000 -62.4000 TS 50 997 0 36 54
1993251N25293 1993 66 NA NA FLOYD 1993-09-09 15:00:00 TS 40.4759 -60.4323 main 506 451 P_____________ AL071993 40.4759 -60.4323 TS 57 993 0 39 52
1993251N25293 1993 66 NA NA FLOYD 1993-09-09 18:00:00 TS 41.7000 -58.3000 65 990 hurdat_atl main 449 442 O_____________ hurdat_atl AL071993 41.7000 -58.3000 HU 65 990 1 39 54
1993251N25293 1993 66 NA NA FLOYD 1993-09-09 21:00:00 TS 42.8015 -56.2037 main 446 323 P_____________ AL071993 42.8015 -56.2037 HU 65 990 1 38 57
1993251N25293 1993 66 NA NA FLOYD 1993-09-10 00:00:00 TS 43.8000 -53.9000 65 990 hurdat_atl main 312 254 O_____________ hurdat_atl AL071993 43.8000 -53.9000 HU 65 990 1 41 63
1993251N25293 1993 66 NA NA FLOYD 1993-09-10 03:00:00 TS 44.6731 -51.2009 main 261 261 P_____________ AL071993 44.6731 -51.2009 HU 65 990 1 43 68
1993251N25293 1993 66 NA NA FLOYD 1993-09-10 06:00:00 TS 45.4000 -48.3000 65 990 hurdat_atl main 392 392 O_____________ hurdat_atl AL071993 45.4000 -48.3000 HU 65 990 1 43 72
1993251N25293 1993 66 NA NA FLOYD 1993-09-10 09:00:00 TS 46.0092 -45.3280 main 578 578 P_____________ AL071993 46.0092 -45.3280 HU 65 990 1 42 75
1993251N25293 1993 66 NA NA FLOYD 1993-09-10 12:00:00 TS 46.5000 -42.5000 65 990 hurdat_atl main 770 770 O_____________ hurdat_atl AL071993 46.5000 -42.5000 HU 65 990 1 37 75
1993251N25293 1993 66 NA NA FLOYD 1993-09-10 15:00:00 TS 46.9540 -40.1097 main 940 940 P_____________ AL071993 46.9540 -40.1097 HU 65 990 1 33 76
1993251N25293 1993 66 NA NA FLOYD 1993-09-10 18:00:00 ET 47.3000 -37.8000 65 990 hurdat_atl main 1107 1107 O_____________ hurdat_atl AL071993 47.3000 -37.8000 EX 65 990 -4 34 81
1993251N25293 1993 66 NA NA FLOYD 1993-09-10 21:00:00 ET 47.4556 -35.2048 main 1298 1298 P_____________ AL071993 47.4556 -35.2048 EX 65 989 -4 36 87
1993251N25293 1993 66 NA NA FLOYD 1993-09-11 00:00:00 ET 47.5000 -32.5000 65 989 hurdat_atl main 1499 1464 O_____________ hurdat_atl AL071993 47.5000 -32.5000 EX 65 989 -4 37 89
1993251N25293 1993 66 NA NA FLOYD 1993-09-11 03:00:00 ET 47.5145 -29.6882 main 1457 1284 P_____________ AL071993 47.5145 -29.6882 EX 65 988 -4 37 90
1993251N25293 1993 66 NA NA FLOYD 1993-09-11 06:00:00 ET 47.5000 -27.0000 65 988 hurdat_atl main 1277 1134 O_____________ hurdat_atl AL071993 47.5000 -27.0000 EX 65 988 -4 34 90
1993251N25293 1993 66 NA NA FLOYD 1993-09-11 09:00:00 ET 47.4930 -24.6384 main 1121 994 P_____________ AL071993 47.4930 -24.6384 EX 65 987 -4 30 90
1993251N25293 1993 66 NA NA FLOYD 1993-09-11 12:00:00 ET 47.5000 -22.5000 65 987 hurdat_atl main 987 871 O_____________ hurdat_atl AL071993 47.5000 -22.5000 EX 65 987 -4 28 90
1993251N25293 1993 66 NA NA FLOYD 1993-09-11 15:00:00 ET 47.4945 -20.4627 main 865 754 P_____________ AL071993 47.4945 -20.4627 EX 65 986 -4 27 90
1993251N25293 1993 66 NA NA FLOYD 1993-09-11 18:00:00 ET 47.5000 -18.5000 65 986 hurdat_atl main 749 646 O_____________ hurdat_atl AL071993 47.5000 -18.5000 EX 65 986 -4 27 90
1993251N25293 1993 66 NA NA FLOYD 1993-09-11 21:00:00 ET 47.4965 -16.5000 main 641 553 P_____________ AL071993 47.4965 -16.5000 EX 65 984 -4 27 90
1993251N25293 1993 66 NA NA FLOYD 1993-09-12 00:00:00 ET 47.5000 -14.5000 65 983 hurdat_atl main 549 474 O_____________ hurdat_atl AL071993 47.5000 -14.5000 EX 65 983 -4 27 91
1993251N25293 1993 66 NA NA FLOYD 1993-09-12 03:00:00 ET 47.4627 -12.4218 main 471 436 P_____________ AL071993 47.4627 -12.4218 EX 65 981 -4 27 90
1993251N25293 1993 66 NA NA FLOYD 1993-09-12 06:00:00 ET 47.5000 -10.5000 65 980 hurdat_atl main 432 310 O_____________ hurdat_atl AL071993 47.5000 -10.5000 EX 65 980 -4 24 83
1993251N25293 1993 66 NA NA FLOYD 1993-09-12 09:00:00 ET 47.7483 -8.81825 main 303 209 P_____________ AL071993 47.7483 -8.81825 EX 67 976 -4 21 76
1993251N25293 1993 66 NA NA FLOYD 1993-09-12 12:00:00 ET 48.0000 -7.50000 70 972 hurdat_atl main 202 137 O_____________ hurdat_atl AL071993 48.0000 -7.50000 EX 70 972 -4 15 79
1993251N25293 1993 66 NA NA FLOYD 1993-09-12 15:00:00 ET 48.0346 -6.59738 main 137 94 P_____________ AL071993 48.0346 -6.59738 EX 70 969 -4 10 90
1993251N25293 1993 66 NA NA FLOYD 1993-09-12 18:00:00 ET 48.0000 -6.00000 70 966 hurdat_atl main 94 59 O_____________ hurdat_atl AL071993 48.0000 -6.00000 EX 70 966 -4 7 94
1993251N25293 1993 66 NA NA FLOYD 1993-09-12 21:00:00 ET 47.9889 -5.48860 main 59 22 P_____________ AL071993 47.9889 -5.48860 EX 70 966 -4 7 90
1993251N25293 1993 66 NA NA FLOYD 1993-09-13 00:00:00 ET 48.0000 -5.00000 70 966 hurdat_atl main 22 O_____________ hurdat_atl AL071993 48.0000 -5.00000 EX 70 966 -4 7 88

IBTrACS Databaseについて

本データベースは、米国NOAAが公開する1842年以降の世界の熱帯低気圧のベストトラックデータアーカイブInternational Best Track Archive for Climate Stewardship (IBTrACS)を、ウェブで閲覧しやすい形式に変換したものです。

最終更新日:2021-12-06